sensor_id;sensor_type;location;lat;lon;timestamp;P1;durP1;ratioP1;P2;durP2;ratioP2
31730;SDS011;18310;55.586;12.286;2023-06-10T00:00:08;1.13;;;0.45;;
31730;SDS011;18310;55.586;12.286;2023-06-10T00:03:16;1.45;;;0.63;;
31730;SDS011;18310;55.586;12.286;2023-06-10T00:06:19;1.10;;;0.50;;
31730;SDS011;18310;55.586;12.286;2023-06-10T00:09:26;1.13;;;0.47;;
31730;SDS011;18310;55.586;12.286;2023-06-10T00:12:31;1.40;;;0.55;;
31730;SDS011;18310;55.586;12.286;2023-06-10T00:15:40;2.70;;;0.60;;
31730;SDS011;18310;55.586;12.286;2023-06-10T00:18:44;3.35;;;0.45;;
31730;SDS011;18310;55.586;12.286;2023-06-10T00:21:48;1.70;;;0.60;;
31730;SDS011;18310;55.586;12.286;2023-06-10T00:24:52;0.90;;;0.40;;
31730;SDS011;18310;55.586;12.286;2023-06-10T00:27:56;3.30;;;0.50;;
31730;SDS011;18310;55.586;12.286;2023-06-10T00:30:59;2.60;;;0.65;;
31730;SDS011;18310;55.586;12.286;2023-06-10T00:34:03;3.78;;;0.60;;
31730;SDS011;18310;55.586;12.286;2023-06-10T00:37:07;1.48;;;0.55;;
31730;SDS011;18310;55.586;12.286;2023-06-10T00:40:10;1.25;;;0.50;;
31730;SDS011;18310;55.586;12.286;2023-06-10T00:43:14;0.82;;;0.22;;
31730;SDS011;18310;55.586;12.286;2023-06-10T00:46:18;1.33;;;0.40;;
31730;SDS011;18310;55.586;12.286;2023-06-10T00:49:24;1.52;;;0.25;;
31730;SDS011;18310;55.586;12.286;2023-06-10T00:52:28;3.17;;;0.50;;
31730;SDS011;18310;55.586;12.286;2023-06-10T00:55:32;2.42;;;0.40;;
31730;SDS011;18310;55.586;12.286;2023-06-10T00:58:35;0.77;;;0.30;;
31730;SDS011;18310;55.586;12.286;2023-06-10T01:01:39;7.57;;;0.60;;
31730;SDS011;18310;55.586;12.286;2023-06-10T01:04:44;4.80;;;0.40;;
31730;SDS011;18310;55.586;12.286;2023-06-10T01:07:52;3.13;;;0.60;;
31730;SDS011;18310;55.586;12.286;2023-06-10T01:11:03;1.30;;;0.47;;
31730;SDS011;18310;55.586;12.286;2023-06-10T01:14:11;1.55;;;0.45;;
31730;SDS011;18310;55.586;12.286;2023-06-10T01:17:16;0.77;;;0.25;;
31730;SDS011;18310;55.586;12.286;2023-06-10T01:20:21;2.40;;;0.75;;
31730;SDS011;18310;55.586;12.286;2023-06-10T01:23:27;1.23;;;0.30;;
31730;SDS011;18310;55.586;12.286;2023-06-10T01:26:32;1.58;;;0.30;;
31730;SDS011;18310;55.586;12.286;2023-06-10T01:29:40;4.80;;;0.55;;
31730;SDS011;18310;55.586;12.286;2023-06-10T01:32:48;2.17;;;0.52;;
31730;SDS011;18310;55.586;12.286;2023-06-10T01:35:53;1.13;;;0.38;;
31730;SDS011;18310;55.586;12.286;2023-06-10T01:39:00;1.23;;;0.38;;
31730;SDS011;18310;55.586;12.286;2023-06-10T01:42:05;1.02;;;0.30;;
31730;SDS011;18310;55.586;12.286;2023-06-10T01:45:09;1.35;;;0.40;;
31730;SDS011;18310;55.586;12.286;2023-06-10T01:48:13;1.23;;;0.37;;
31730;SDS011;18310;55.586;12.286;2023-06-10T01:51:16;2.53;;;0.50;;
31730;SDS011;18310;55.586;12.286;2023-06-10T01:54:21;2.63;;;0.40;;
31730;SDS011;18310;55.586;12.286;2023-06-10T01:57:25;1.65;;;0.52;;
31730;SDS011;18310;55.586;12.286;2023-06-10T02:00:28;1.83;;;0.20;;
31730;SDS011;18310;55.586;12.286;2023-06-10T02:03:54;1.13;;;0.28;;
31730;SDS011;18310;55.586;12.286;2023-06-10T02:06:58;1.73;;;0.50;;
31730;SDS011;18310;55.586;12.286;2023-06-10T02:10:06;2.10;;;0.50;;
31730;SDS011;18310;55.586;12.286;2023-06-10T02:13:10;3.45;;;0.40;;
31730;SDS011;18310;55.586;12.286;2023-06-10T02:16:14;1.20;;;0.35;;
31730;SDS011;18310;55.586;12.286;2023-06-10T02:22:23;1.20;;;0.40;;
31730;SDS011;18310;55.586;12.286;2023-06-10T02:25:27;3.23;;;0.40;;
31730;SDS011;18310;55.586;12.286;2023-06-10T02:28:30;1.17;;;0.43;;
31730;SDS011;18310;55.586;12.286;2023-06-10T02:31:33;0.85;;;0.40;;
31730;SDS011;18310;55.586;12.286;2023-06-10T02:34:39;1.77;;;0.50;;
31730;SDS011;18310;55.586;12.286;2023-06-10T02:37:44;1.92;;;0.40;;
31730;SDS011;18310;55.586;12.286;2023-06-10T02:40:47;1.38;;;0.30;;
31730;SDS011;18310;55.586;12.286;2023-06-10T02:43:50;1.83;;;0.30;;
31730;SDS011;18310;55.586;12.286;2023-06-10T02:46:54;0.80;;;0.20;;
31730;SDS011;18310;55.586;12.286;2023-06-10T02:49:59;1.37;;;0.40;;
31730;SDS011;18310;55.586;12.286;2023-06-10T02:53:02;1.67;;;0.40;;
31730;SDS011;18310;55.586;12.286;2023-06-10T02:56:05;3.40;;;0.60;;
31730;SDS011;18310;55.586;12.286;2023-06-10T02:59:08;1.05;;;0.30;;
31730;SDS011;18310;55.586;12.286;2023-06-10T03:02:12;6.18;;;0.70;;
31730;SDS011;18310;55.586;12.286;2023-06-10T03:05:17;1.60;;;0.33;;
31730;SDS011;18310;55.586;12.286;2023-06-10T03:08:21;6.40;;;0.50;;
31730;SDS011;18310;55.586;12.286;2023-06-10T03:11:24;1.92;;;0.50;;
31730;SDS011;18310;55.586;12.286;2023-06-10T03:14:27;2.00;;;0.50;;
31730;SDS011;18310;55.586;12.286;2023-06-10T03:17:30;1.27;;;0.50;;
31730;SDS011;18310;55.586;12.286;2023-06-10T03:20:35;1.40;;;0.47;;
31730;SDS011;18310;55.586;12.286;2023-06-10T03:23:39;3.70;;;0.40;;
31730;SDS011;18310;55.586;12.286;2023-06-10T03:26:42;0.77;;;0.30;;
31730;SDS011;18310;55.586;12.286;2023-06-10T03:29:45;1.48;;;0.50;;
31730;SDS011;18310;55.586;12.286;2023-06-10T03:32:49;1.80;;;0.37;;
31730;SDS011;18310;55.586;12.286;2023-06-10T03:36:16;3.58;;;0.32;;
31730;SDS011;18310;55.586;12.286;2023-06-10T03:39:19;2.08;;;0.20;;
31730;SDS011;18310;55.586;12.286;2023-06-10T03:42:23;1.17;;;0.40;;
31730;SDS011;18310;55.586;12.286;2023-06-10T03:45:26;0.98;;;0.30;;
31730;SDS011;18310;55.586;12.286;2023-06-10T03:48:30;1.40;;;0.30;;
31730;SDS011;18310;55.586;12.286;2023-06-10T03:51:35;1.47;;;0.33;;
31730;SDS011;18310;55.586;12.286;2023-06-10T03:54:39;1.13;;;0.40;;
31730;SDS011;18310;55.586;12.286;2023-06-10T03:57:42;2.00;;;0.53;;
31730;SDS011;18310;55.586;12.286;2023-06-10T04:00:45;1.15;;;0.30;;
31730;SDS011;18310;55.586;12.286;2023-06-10T04:03:48;1.43;;;0.40;;
31730;SDS011;18310;55.586;12.286;2023-06-10T04:06:54;1.40;;;0.30;;
31730;SDS011;18310;55.586;12.286;2023-06-10T04:09:57;1.90;;;0.52;;
31730;SDS011;18310;55.586;12.286;2023-06-10T04:13:01;1.90;;;0.45;;
31730;SDS011;18310;55.586;12.286;2023-06-10T04:16:05;2.80;;;0.60;;
31730;SDS011;18310;55.586;12.286;2023-06-10T04:19:08;3.20;;;0.47;;
31730;SDS011;18310;55.586;12.286;2023-06-10T04:22:13;0.87;;;0.30;;
31730;SDS011;18310;55.586;12.286;2023-06-10T04:25:16;1.15;;;0.40;;
31730;SDS011;18310;55.586;12.286;2023-06-10T04:28:19;2.03;;;0.57;;
31730;SDS011;18310;55.586;12.286;2023-06-10T04:31:23;2.67;;;0.50;;
31730;SDS011;18310;55.586;12.286;2023-06-10T04:34:26;1.97;;;0.73;;
31730;SDS011;18310;55.586;12.286;2023-06-10T04:37:31;2.20;;;0.50;;
31730;SDS011;18310;55.586;12.286;2023-06-10T04:40:34;1.98;;;0.43;;
31730;SDS011;18310;55.586;12.286;2023-06-10T04:43:38;1.92;;;0.47;;
31730;SDS011;18310;55.586;12.286;2023-06-10T04:46:41;7.97;;;0.50;;
31730;SDS011;18310;55.586;12.286;2023-06-10T04:49:45;1.53;;;0.60;;
31730;SDS011;18310;55.586;12.286;2023-06-10T04:52:49;3.35;;;0.50;;
31730;SDS011;18310;55.586;12.286;2023-06-10T04:55:53;3.03;;;0.50;;
31730;SDS011;18310;55.586;12.286;2023-06-10T04:58:56;1.83;;;0.55;;
31730;SDS011;18310;55.586;12.286;2023-06-10T05:01:59;1.83;;;0.47;;
31730;SDS011;18310;55.586;12.286;2023-06-10T05:05:03;2.20;;;0.60;;
31730;SDS011;18310;55.586;12.286;2023-06-10T05:08:08;0.73;;;0.30;;
31730;SDS011;18310;55.586;12.286;2023-06-10T05:11:11;1.42;;;0.50;;
31730;SDS011;18310;55.586;12.286;2023-06-10T05:14:14;3.93;;;0.70;;
31730;SDS011;18310;55.586;12.286;2023-06-10T05:17:18;1.83;;;0.50;;
31730;SDS011;18310;55.586;12.286;2023-06-10T05:20:21;2.90;;;0.50;;
31730;SDS011;18310;55.586;12.286;2023-06-10T05:23:26;1.45;;;0.50;;
31730;SDS011;18310;55.586;12.286;2023-06-10T05:26:29;3.42;;;0.40;;
31730;SDS011;18310;55.586;12.286;2023-06-10T05:29:33;1.27;;;0.50;;
31730;SDS011;18310;55.586;12.286;2023-06-10T05:32:36;4.70;;;0.63;;
31730;SDS011;18310;55.586;12.286;2023-06-10T05:35:39;3.00;;;0.50;;
31730;SDS011;18310;55.586;12.286;2023-06-10T05:38:44;2.33;;;0.60;;
31730;SDS011;18310;55.586;12.286;2023-06-10T05:41:47;3.70;;;0.50;;
31730;SDS011;18310;55.586;12.286;2023-06-10T05:44:51;1.07;;;0.27;;
31730;SDS011;18310;55.586;12.286;2023-06-10T05:47:54;1.20;;;0.47;;
31730;SDS011;18310;55.586;12.286;2023-06-10T05:50:57;2.75;;;1.05;;
31730;SDS011;18310;55.586;12.286;2023-06-10T05:54:02;6.22;;;0.80;;
31730;SDS011;18310;55.586;12.286;2023-06-10T05:57:06;2.47;;;0.52;;
31730;SDS011;18310;55.586;12.286;2023-06-10T06:00:10;5.70;;;0.70;;
31730;SDS011;18310;55.586;12.286;2023-06-10T06:03:13;5.55;;;0.60;;
31730;SDS011;18310;55.586;12.286;2023-06-10T06:06:17;1.73;;;0.50;;
31730;SDS011;18310;55.586;12.286;2023-06-10T06:09:23;2.08;;;0.57;;
31730;SDS011;18310;55.586;12.286;2023-06-10T06:12:27;1.95;;;0.65;;
31730;SDS011;18310;55.586;12.286;2023-06-10T06:15:30;2.10;;;0.55;;
31730;SDS011;18310;55.586;12.286;2023-06-10T06:18:33;0.93;;;0.47;;
31730;SDS011;18310;55.586;12.286;2023-06-10T06:21:37;2.08;;;0.65;;
31730;SDS011;18310;55.586;12.286;2023-06-10T06:25:00;2.50;;;0.63;;
31730;SDS011;18310;55.586;12.286;2023-06-10T06:28:03;2.13;;;0.63;;
31730;SDS011;18310;55.586;12.286;2023-06-10T06:31:07;3.80;;;0.60;;
31730;SDS011;18310;55.586;12.286;2023-06-10T06:34:10;1.80;;;0.40;;
31730;SDS011;18310;55.586;12.286;2023-06-10T06:37:17;3.05;;;0.70;;
31730;SDS011;18310;55.586;12.286;2023-06-10T06:40:22;4.10;;;0.40;;
31730;SDS011;18310;55.586;12.286;2023-06-10T06:43:25;2.22;;;0.60;;
31730;SDS011;18310;55.586;12.286;2023-06-10T06:46:29;2.58;;;0.85;;
31730;SDS011;18310;55.586;12.286;2023-06-10T06:49:32;1.48;;;0.60;;
31730;SDS011;18310;55.586;12.286;2023-06-10T06:52:35;4.03;;;0.67;;
31730;SDS011;18310;55.586;12.286;2023-06-10T06:55:40;0.93;;;0.40;;
31730;SDS011;18310;55.586;12.286;2023-06-10T06:58:43;3.15;;;0.68;;
31730;SDS011;18310;55.586;12.286;2023-06-10T07:01:46;2.45;;;0.63;;
31730;SDS011;18310;55.586;12.286;2023-06-10T07:04:49;1.90;;;0.57;;
31730;SDS011;18310;55.586;12.286;2023-06-10T07:07:53;2.95;;;0.70;;
31730;SDS011;18310;55.586;12.286;2023-06-10T07:10:58;1.83;;;0.60;;
31730;SDS011;18310;55.586;12.286;2023-06-10T07:14:02;4.18;;;0.77;;
31730;SDS011;18310;55.586;12.286;2023-06-10T07:17:05;3.17;;;0.60;;
31730;SDS011;18310;55.586;12.286;2023-06-10T07:20:09;4.40;;;0.80;;
31730;SDS011;18310;55.586;12.286;2023-06-10T07:23:13;4.20;;;0.85;;
31730;SDS011;18310;55.586;12.286;2023-06-10T07:26:17;1.25;;;0.52;;
31730;SDS011;18310;55.586;12.286;2023-06-10T07:29:21;4.07;;;0.60;;
31730;SDS011;18310;55.586;12.286;2023-06-10T07:32:24;15.73;;;1.40;;
31730;SDS011;18310;55.586;12.286;2023-06-10T07:35:27;2.55;;;0.85;;
31730;SDS011;18310;55.586;12.286;2023-06-10T07:38:31;6.03;;;0.60;;
31730;SDS011;18310;55.586;12.286;2023-06-10T07:41:35;2.40;;;1.00;;
31730;SDS011;18310;55.586;12.286;2023-06-10T07:44:39;4.50;;;0.77;;
31730;SDS011;18310;55.586;12.286;2023-06-10T07:47:42;1.47;;;0.50;;
31730;SDS011;18310;55.586;12.286;2023-06-10T07:50:46;1.83;;;0.70;;
31730;SDS011;18310;55.586;12.286;2023-06-10T07:53:50;3.17;;;0.88;;
31730;SDS011;18310;55.586;12.286;2023-06-10T07:56:55;4.80;;;0.90;;
31730;SDS011;18310;55.586;12.286;2023-06-10T07:59:58;2.28;;;0.50;;
31730;SDS011;18310;55.586;12.286;2023-06-10T08:03:02;3.28;;;0.63;;
31730;SDS011;18310;55.586;12.286;2023-06-10T08:06:11;1.10;;;0.50;;
31730;SDS011;18310;55.586;12.286;2023-06-10T08:09:14;3.60;;;1.03;;
31730;SDS011;18310;55.586;12.286;2023-06-10T08:12:26;1.75;;;0.50;;
31730;SDS011;18310;55.586;12.286;2023-06-10T08:15:35;3.65;;;1.05;;
31730;SDS011;18310;55.586;12.286;2023-06-10T08:18:39;2.23;;;0.70;;
31730;SDS011;18310;55.586;12.286;2023-06-10T08:21:48;2.70;;;0.75;;
31730;SDS011;18310;55.586;12.286;2023-06-10T08:24:58;2.92;;;0.75;;
31730;SDS011;18310;55.586;12.286;2023-06-10T08:28:03;4.87;;;0.97;;
31730;SDS011;18310;55.586;12.286;2023-06-10T08:31:12;9.40;;;1.13;;
31730;SDS011;18310;55.586;12.286;2023-06-10T08:34:16;4.22;;;0.70;;
31730;SDS011;18310;55.586;12.286;2023-06-10T08:37:19;2.13;;;0.73;;
31730;SDS011;18310;55.586;12.286;2023-06-10T08:40:23;4.80;;;0.93;;
31730;SDS011;18310;55.586;12.286;2023-06-10T08:43:29;5.20;;;1.08;;
31730;SDS011;18310;55.586;12.286;2023-06-10T08:46:36;4.38;;;0.95;;
31730;SDS011;18310;55.586;12.286;2023-06-10T08:49:43;1.80;;;0.70;;
31730;SDS011;18310;55.586;12.286;2023-06-10T08:52:48;2.45;;;0.88;;
31730;SDS011;18310;55.586;12.286;2023-06-10T08:55:53;2.00;;;0.80;;
31730;SDS011;18310;55.586;12.286;2023-06-10T08:59:03;2.90;;;0.90;;
31730;SDS011;18310;55.586;12.286;2023-06-10T09:02:08;1.92;;;0.80;;
31730;SDS011;18310;55.586;12.286;2023-06-10T09:05:11;5.55;;;1.15;;
31730;SDS011;18310;55.586;12.286;2023-06-10T09:08:15;1.98;;;0.80;;
31730;SDS011;18310;55.586;12.286;2023-06-10T09:11:19;3.72;;;1.00;;
31730;SDS011;18310;55.586;12.286;2023-06-10T09:14:24;3.17;;;0.90;;
31730;SDS011;18310;55.586;12.286;2023-06-10T09:17:28;2.55;;;0.65;;
31730;SDS011;18310;55.586;12.286;2023-06-10T09:20:31;8.40;;;1.17;;
31730;SDS011;18310;55.586;12.286;2023-06-10T09:23:35;1.77;;;0.57;;
31730;SDS011;18310;55.586;12.286;2023-06-10T09:26:40;1.30;;;0.60;;
31730;SDS011;18310;55.586;12.286;2023-06-10T09:29:51;3.85;;;0.80;;
31730;SDS011;18310;55.586;12.286;2023-06-10T09:32:56;6.65;;;1.15;;
31730;SDS011;18310;55.586;12.286;2023-06-10T09:36:01;2.63;;;0.93;;
31730;SDS011;18310;55.586;12.286;2023-06-10T09:39:05;3.50;;;0.95;;
31730;SDS011;18310;55.586;12.286;2023-06-10T09:42:17;2.13;;;0.75;;
31730;SDS011;18310;55.586;12.286;2023-06-10T09:45:23;2.53;;;0.77;;
31730;SDS011;18310;55.586;12.286;2023-06-10T09:48:34;2.85;;;0.90;;
31730;SDS011;18310;55.586;12.286;2023-06-10T09:51:41;2.88;;;0.60;;
31730;SDS011;18310;55.586;12.286;2023-06-10T09:54:52;3.58;;;0.90;;
31730;SDS011;18310;55.586;12.286;2023-06-10T09:57:56;4.63;;;0.82;;
31730;SDS011;18310;55.586;12.286;2023-06-10T10:01:05;2.38;;;0.70;;
31730;SDS011;18310;55.586;12.286;2023-06-10T10:04:09;5.28;;;1.00;;
31730;SDS011;18310;55.586;12.286;2023-06-10T10:07:13;1.80;;;0.70;;
31730;SDS011;18310;55.586;12.286;2023-06-10T10:13:20;1.80;;;0.83;;
31730;SDS011;18310;55.586;12.286;2023-06-10T10:16:27;2.28;;;0.90;;
31730;SDS011;18310;55.586;12.286;2023-06-10T10:19:37;1.95;;;0.70;;
31730;SDS011;18310;55.586;12.286;2023-06-10T10:22:47;4.72;;;1.00;;
31730;SDS011;18310;55.586;12.286;2023-06-10T10:25:55;4.53;;;0.98;;
31730;SDS011;18310;55.586;12.286;2023-06-10T10:29:05;4.95;;;1.70;;
31730;SDS011;18310;55.586;12.286;2023-06-10T10:32:14;5.07;;;0.98;;
31730;SDS011;18310;55.586;12.286;2023-06-10T10:35:20;4.95;;;0.80;;
31730;SDS011;18310;55.586;12.286;2023-06-10T10:38:25;3.38;;;0.88;;
31730;SDS011;18310;55.586;12.286;2023-06-10T10:41:31;2.75;;;1.00;;
31730;SDS011;18310;55.586;12.286;2023-06-10T10:44:35;3.78;;;1.00;;
31730;SDS011;18310;55.586;12.286;2023-06-10T10:50:44;7.70;;;1.08;;
31730;SDS011;18310;55.586;12.286;2023-06-10T10:54:12;3.13;;;0.93;;
31730;SDS011;18310;55.586;12.286;2023-06-10T10:57:16;4.63;;;1.48;;
31730;SDS011;18310;55.586;12.286;2023-06-10T11:00:24;6.28;;;1.48;;
31730;SDS011;18310;55.586;12.286;2023-06-10T11:03:34;1.67;;;0.63;;
31730;SDS011;18310;55.586;12.286;2023-06-10T11:06:51;5.03;;;1.17;;
31730;SDS011;18310;55.586;12.286;2023-06-10T11:09:57;2.92;;;1.17;;
31730;SDS011;18310;55.586;12.286;2023-06-10T11:13:05;6.88;;;0.90;;
31730;SDS011;18310;55.586;12.286;2023-06-10T11:16:10;5.10;;;1.15;;
31730;SDS011;18310;55.586;12.286;2023-06-10T11:22:42;3.40;;;0.95;;
31730;SDS011;18310;55.586;12.286;2023-06-10T11:26:12;5.75;;;1.20;;
31730;SDS011;18310;55.586;12.286;2023-06-10T11:29:19;4.00;;;1.08;;
31730;SDS011;18310;55.586;12.286;2023-06-10T11:32:23;3.17;;;1.00;;
31730;SDS011;18310;55.586;12.286;2023-06-10T11:35:32;3.60;;;0.80;;
31730;SDS011;18310;55.586;12.286;2023-06-10T11:38:37;6.50;;;0.77;;
31730;SDS011;18310;55.586;12.286;2023-06-10T11:41:40;3.53;;;1.10;;
31730;SDS011;18310;55.586;12.286;2023-06-10T11:44:47;5.15;;;1.55;;
31730;SDS011;18310;55.586;12.286;2023-06-10T11:47:55;3.53;;;1.02;;
31730;SDS011;18310;55.586;12.286;2023-06-10T11:51:06;6.45;;;1.60;;
31730;SDS011;18310;55.586;12.286;2023-06-10T11:54:09;5.20;;;1.33;;
31730;SDS011;18310;55.586;12.286;2023-06-10T11:57:13;9.45;;;1.60;;
31730;SDS011;18310;55.586;12.286;2023-06-10T12:00:16;5.22;;;1.25;;
31730;SDS011;18310;55.586;12.286;2023-06-10T12:03:21;6.38;;;1.42;;
31730;SDS011;18310;55.586;12.286;2023-06-10T12:06:26;3.78;;;1.13;;
31730;SDS011;18310;55.586;12.286;2023-06-10T12:09:30;3.88;;;1.42;;
31730;SDS011;18310;55.586;12.286;2023-06-10T12:12:34;4.57;;;1.15;;
31730;SDS011;18310;55.586;12.286;2023-06-10T12:15:38;5.53;;;1.65;;
31730;SDS011;18310;55.586;12.286;2023-06-10T12:18:42;5.15;;;1.52;;
31730;SDS011;18310;55.586;12.286;2023-06-10T12:21:49;9.27;;;1.40;;
31730;SDS011;18310;55.586;12.286;2023-06-10T12:24:57;10.75;;;1.48;;
31730;SDS011;18310;55.586;12.286;2023-06-10T12:28:03;5.57;;;1.67;;
31730;SDS011;18310;55.586;12.286;2023-06-10T12:31:08;7.63;;;1.40;;
31730;SDS011;18310;55.586;12.286;2023-06-10T12:34:35;4.53;;;1.35;;
31730;SDS011;18310;55.586;12.286;2023-06-10T12:37:39;5.18;;;1.33;;
31730;SDS011;18310;55.586;12.286;2023-06-10T12:40:44;2.88;;;1.23;;
31730;SDS011;18310;55.586;12.286;2023-06-10T12:43:48;3.95;;;1.33;;
31730;SDS011;18310;55.586;12.286;2023-06-10T12:46:53;4.78;;;1.50;;
31730;SDS011;18310;55.586;12.286;2023-06-10T12:49:59;3.60;;;1.27;;
31730;SDS011;18310;55.586;12.286;2023-06-10T12:53:02;4.93;;;1.65;;
31730;SDS011;18310;55.586;12.286;2023-06-10T12:56:06;3.30;;;1.40;;
31730;SDS011;18310;55.586;12.286;2023-06-10T12:59:09;6.53;;;1.83;;
31730;SDS011;18310;55.586;12.286;2023-06-10T13:05:17;4.35;;;1.23;;
31730;SDS011;18310;55.586;12.286;2023-06-10T13:08:22;6.10;;;1.40;;
31730;SDS011;18310;55.586;12.286;2023-06-10T13:14:29;3.92;;;1.50;;
31730;SDS011;18310;55.586;12.286;2023-06-10T13:17:32;9.82;;;1.58;;
31730;SDS011;18310;55.586;12.286;2023-06-10T13:20:39;5.72;;;1.50;;
31730;SDS011;18310;55.586;12.286;2023-06-10T13:23:43;8.60;;;1.33;;
31730;SDS011;18310;55.586;12.286;2023-06-10T13:26:47;5.28;;;1.60;;
31730;SDS011;18310;55.586;12.286;2023-06-10T13:29:50;4.53;;;1.20;;
31730;SDS011;18310;55.586;12.286;2023-06-10T13:32:54;6.97;;;1.60;;
31730;SDS011;18310;55.586;12.286;2023-06-10T13:35:59;4.45;;;1.55;;
31730;SDS011;18310;55.586;12.286;2023-06-10T13:39:02;6.35;;;1.45;;
31730;SDS011;18310;55.586;12.286;2023-06-10T13:42:06;3.67;;;1.30;;
31730;SDS011;18310;55.586;12.286;2023-06-10T13:45:10;2.95;;;1.20;;
31730;SDS011;18310;55.586;12.286;2023-06-10T13:48:15;3.15;;;1.45;;
31730;SDS011;18310;55.586;12.286;2023-06-10T13:51:19;3.17;;;1.08;;
31730;SDS011;18310;55.586;12.286;2023-06-10T13:54:23;4.63;;;1.48;;
31730;SDS011;18310;55.586;12.286;2023-06-10T13:57:26;4.25;;;1.40;;
31730;SDS011;18310;55.586;12.286;2023-06-10T14:00:29;3.60;;;1.53;;
31730;SDS011;18310;55.586;12.286;2023-06-10T14:03:33;6.05;;;1.60;;
31730;SDS011;18310;55.586;12.286;2023-06-10T14:06:38;4.55;;;1.20;;
31730;SDS011;18310;55.586;12.286;2023-06-10T14:09:41;7.63;;;1.42;;
31730;SDS011;18310;55.586;12.286;2023-06-10T14:12:45;3.25;;;1.55;;
31730;SDS011;18310;55.586;12.286;2023-06-10T14:15:48;7.67;;;1.50;;
31730;SDS011;18310;55.586;12.286;2023-06-10T14:18:51;3.50;;;1.40;;
31730;SDS011;18310;55.586;12.286;2023-06-10T14:21:56;3.13;;;1.00;;
31730;SDS011;18310;55.586;12.286;2023-06-10T14:24:59;5.03;;;1.27;;
31730;SDS011;18310;55.586;12.286;2023-06-10T14:28:03;14.57;;;1.90;;
31730;SDS011;18310;55.586;12.286;2023-06-10T14:31:06;4.00;;;1.20;;
31730;SDS011;18310;55.586;12.286;2023-06-10T14:34:10;5.95;;;1.10;;
31730;SDS011;18310;55.586;12.286;2023-06-10T14:37:14;3.83;;;1.73;;
31730;SDS011;18310;55.586;12.286;2023-06-10T14:40:18;2.63;;;1.08;;
31730;SDS011;18310;55.586;12.286;2023-06-10T14:43:23;3.13;;;1.08;;
31730;SDS011;18310;55.586;12.286;2023-06-10T14:46:26;4.70;;;1.05;;
31730;SDS011;18310;55.586;12.286;2023-06-10T14:49:29;4.87;;;1.77;;
31730;SDS011;18310;55.586;12.286;2023-06-10T14:52:34;4.27;;;1.30;;
31730;SDS011;18310;55.586;12.286;2023-06-10T14:55:37;8.80;;;1.20;;
31730;SDS011;18310;55.586;12.286;2023-06-10T14:58:40;5.47;;;1.33;;
31730;SDS011;18310;55.586;12.286;2023-06-10T15:01:43;2.03;;;0.97;;
31730;SDS011;18310;55.586;12.286;2023-06-10T15:04:46;4.20;;;1.03;;
31730;SDS011;18310;55.586;12.286;2023-06-10T15:07:51;6.47;;;1.20;;
31730;SDS011;18310;55.586;12.286;2023-06-10T15:10:54;2.90;;;1.00;;
31730;SDS011;18310;55.586;12.286;2023-06-10T15:13:59;5.88;;;1.08;;
31730;SDS011;18310;55.586;12.286;2023-06-10T15:17:02;4.60;;;1.20;;
31730;SDS011;18310;55.586;12.286;2023-06-10T15:20:05;7.15;;;1.48;;
31730;SDS011;18310;55.586;12.286;2023-06-10T15:26:13;8.48;;;1.25;;
31730;SDS011;18310;55.586;12.286;2023-06-10T15:29:16;4.93;;;1.37;;
31730;SDS011;18310;55.586;12.286;2023-06-10T15:32:19;3.50;;;1.27;;
31730;SDS011;18310;55.586;12.286;2023-06-10T15:35:23;4.53;;;0.90;;
31730;SDS011;18310;55.586;12.286;2023-06-10T15:38:27;2.77;;;1.20;;
31730;SDS011;18310;55.586;12.286;2023-06-10T15:41:30;4.65;;;1.10;;
31730;SDS011;18310;55.586;12.286;2023-06-10T15:44:33;3.10;;;1.43;;
31730;SDS011;18310;55.586;12.286;2023-06-10T15:47:36;2.42;;;0.90;;
31730;SDS011;18310;55.586;12.286;2023-06-10T15:52:32;6.35;;;1.20;;
31730;SDS011;18310;55.586;12.286;2023-06-10T15:55:35;3.28;;;1.17;;
31730;SDS011;18310;55.586;12.286;2023-06-10T15:58:38;3.10;;;1.00;;
31730;SDS011;18310;55.586;12.286;2023-06-10T16:01:41;2.37;;;0.90;;
31730;SDS011;18310;55.586;12.286;2023-06-10T16:07:50;7.53;;;1.50;;
31730;SDS011;18310;55.586;12.286;2023-06-10T16:12:07;2.40;;;1.05;;
31730;SDS011;18310;55.586;12.286;2023-06-10T16:15:11;3.40;;;1.17;;
31730;SDS011;18310;55.586;12.286;2023-06-10T16:18:15;2.42;;;0.98;;
31730;SDS011;18310;55.586;12.286;2023-06-10T16:21:19;3.60;;;0.63;;
31730;SDS011;18310;55.586;12.286;2023-06-10T16:24:22;3.47;;;1.05;;
31730;SDS011;18310;55.586;12.286;2023-06-10T16:27:27;7.07;;;1.40;;
31730;SDS011;18310;55.586;12.286;2023-06-10T16:30:30;9.05;;;1.02;;
31730;SDS011;18310;55.586;12.286;2023-06-10T16:33:34;3.35;;;0.95;;
31730;SDS011;18310;55.586;12.286;2023-06-10T16:36:38;2.92;;;0.80;;
31730;SDS011;18310;55.586;12.286;2023-06-10T16:39:41;5.37;;;0.90;;
31730;SDS011;18310;55.586;12.286;2023-06-10T16:42:45;3.07;;;0.90;;
31730;SDS011;18310;55.586;12.286;2023-06-10T16:45:48;2.90;;;0.88;;
31730;SDS011;18310;55.586;12.286;2023-06-10T16:48:52;4.85;;;0.80;;
31730;SDS011;18310;55.586;12.286;2023-06-10T16:51:55;3.83;;;0.97;;
31730;SDS011;18310;55.586;12.286;2023-06-10T16:54:58;2.63;;;0.80;;
31730;SDS011;18310;55.586;12.286;2023-06-10T16:58:02;3.53;;;0.65;;
31730;SDS011;18310;55.586;12.286;2023-06-10T17:01:07;2.83;;;0.80;;
31730;SDS011;18310;55.586;12.286;2023-06-10T17:04:11;2.90;;;1.00;;
31730;SDS011;18310;55.586;12.286;2023-06-10T17:07:14;5.43;;;1.40;;
31730;SDS011;18310;55.586;12.286;2023-06-10T17:10:18;3.08;;;0.80;;
31730;SDS011;18310;55.586;12.286;2023-06-10T17:13:23;8.57;;;0.70;;
31730;SDS011;18310;55.586;12.286;2023-06-10T17:16:26;2.47;;;0.95;;
31730;SDS011;18310;55.586;12.286;2023-06-10T17:19:29;2.77;;;0.60;;
31730;SDS011;18310;55.586;12.286;2023-06-10T17:22:32;2.50;;;1.02;;
31730;SDS011;18310;55.586;12.286;2023-06-10T17:25:36;2.08;;;0.63;;
31730;SDS011;18310;55.586;12.286;2023-06-10T17:28:40;2.87;;;1.20;;
31730;SDS011;18310;55.586;12.286;2023-06-10T17:31:44;2.75;;;0.80;;
31730;SDS011;18310;55.586;12.286;2023-06-10T17:34:47;3.20;;;0.80;;
31730;SDS011;18310;55.586;12.286;2023-06-10T17:37:51;8.70;;;0.98;;
31730;SDS011;18310;55.586;12.286;2023-06-10T17:40:55;4.32;;;0.80;;
31730;SDS011;18310;55.586;12.286;2023-06-10T17:44:00;5.10;;;1.00;;
31730;SDS011;18310;55.586;12.286;2023-06-10T17:47:03;1.58;;;0.50;;
31730;SDS011;18310;55.586;12.286;2023-06-10T17:50:07;1.65;;;0.68;;
31730;SDS011;18310;55.586;12.286;2023-06-10T17:56:14;2.25;;;0.60;;
31730;SDS011;18310;55.586;12.286;2023-06-10T17:59:19;3.05;;;0.90;;
31730;SDS011;18310;55.586;12.286;2023-06-10T18:02:22;2.20;;;0.98;;
31730;SDS011;18310;55.586;12.286;2023-06-10T18:05:25;5.32;;;0.90;;
31730;SDS011;18310;55.586;12.286;2023-06-10T18:08:28;1.77;;;0.50;;
31730;SDS011;18310;55.586;12.286;2023-06-10T18:11:33;2.47;;;0.50;;
31730;SDS011;18310;55.586;12.286;2023-06-10T18:14:59;3.70;;;0.60;;
31730;SDS011;18310;55.586;12.286;2023-06-10T18:18:02;1.58;;;0.52;;
31730;SDS011;18310;55.586;12.286;2023-06-10T18:21:06;1.52;;;0.68;;
31730;SDS011;18310;55.586;12.286;2023-06-10T18:24:09;4.70;;;0.80;;
31730;SDS011;18310;55.586;12.286;2023-06-10T18:27:12;6.90;;;0.73;;
31730;SDS011;18310;55.586;12.286;2023-06-10T18:30:19;1.42;;;0.70;;
31730;SDS011;18310;55.586;12.286;2023-06-10T18:33:22;3.58;;;0.55;;
31730;SDS011;18310;55.586;12.286;2023-06-10T18:36:25;3.92;;;0.73;;
31730;SDS011;18310;55.586;12.286;2023-06-10T18:39:28;1.87;;;0.70;;
31730;SDS011;18310;55.586;12.286;2023-06-10T18:42:32;1.00;;;0.50;;
31730;SDS011;18310;55.586;12.286;2023-06-10T18:45:36;2.03;;;0.50;;